Immensity — 9HA4442 — position and weather

sailwx.info

Track history (hours):
 
Tides and Currents Weather Stations Pressure Air Temp Water Temp Dewpoint Dewpoint Depression Visibility Wind Speed Wind Dir Waves Ship Positions

Immensity

Last reported at 2017-Dec-18 19:47 UTC. Time now 2017-Dec-18 20:40 UTC.
Position N 54°38' E 012°26'.

Length 108 m; draft 4.9 m.

Type: Cargo ship. MMSI: 249935000.

Date/timePositionNaut miles runAvg speedWind from/ knotsBaromVisibWave heightAir tempDewpointWater temp
2017-Dec-18 19:47N 54°38' E 012°26'2 9.0
2017-Dec-18 19:30N 54°36' E 012°22'4 8.8
2017-Dec-18 19:00N 54°33' E 012°18'7 8.9
2017-Dec-18 18:15N 54°27' E 012°13'2 8.9
2017-Dec-18 18:00N 54°25' E 012°11'4 8.4
2017-Dec-18 17:30N 54°24' E 012°03'13 8.4
2017-Dec-18 15:57N 54°26' E 011°41'4 8.5
2017-Dec-18 15:30N 54°28' E 011°35'4 8.5
2017-Dec-18 14:59N 54°30' E 011°29'4 8.1
2017-Dec-18 14:30N 54°32' E 011°23'4 7.9
2017-Dec-18 14:00N 54°33' E 011°16'4 7.7
2017-Dec-18 13:30N 54°35' E 011°10'4 7.6
2017-Dec-18 13:00N 54°35' E 011°04'4 7.9
2017-Dec-18 12:30N 54°35' E 010°57'4 8.6
2017-Dec-18 12:00N 54°34' E 010°50'4 8.8
2017-Dec-18 11:30N 54°34' E 010°42'4 8.9
2017-Dec-18 11:00N 54°33' E 010°35'24 6.7
2017-Dec-18 07:23N 54°21' E 009°59'3 6.9
2017-Dec-18 06:55N 54°21' E 009°54'3 8.1
2017-Dec-18 06:30N 54°22' E 009°48'4 8.2
2017-Dec-18 06:00N 54°19' E 009°43'4 7.2
2017-Dec-18 05:31N 54°17' E 009°38'3 6.6
2017-Dec-18 05:00N 54°14' E 009°36'4 8.0
2017-Dec-18 04:30N 54°11' E 009°31'4 8.4
2017-Dec-18 04:00N 54°10' E 009°24'4 7.4
2017-Dec-18 03:26N 54°06' E 009°20'4 8.3
2017-Dec-18 03:00N 54°03' E 009°18'3 5.4
2017-Dec-18 02:30N 54°00' E 009°18'3 6.4
2017-Dec-18 02:00N 53°57' E 009°15'4 8.0
2017-Dec-18 01:31N 53°54' E 009°10'1 2.4
2017-Dec-18 01:00N 53°54' E 009°09'0 0.7
2017-Dec-18 00:30N 53°53' E 009°08'2 3.3
2017-Dec-18 00:00N 53°53' E 009°05'2 3.5
2017-Dec-17 23:30N 53°52' E 009°03'713.2
2017-Dec-17 23:00N 53°50' E 008°52'612.5
2017-Dec-17 22:31N 53°53' E 008°43'612.8
2017-Dec-17 22:01N 53°58' E 008°35'714.0
2017-Dec-17 21:31N 53°59' E 008°24'713.3
2017-Dec-17 21:00N 53°60' E 008°12'611.2
2017-Dec-17 20:30N 53°59' E 008°03'611.1
2017-Dec-17 20:00N 53°58' E 007°54'88 9.9
2017-Dec-17 11:08N 53°34' E 005°30'2 8.7
2017-Dec-17 10:55N 53°34' E 005°27'4 8.8
2017-Dec-17 10:30N 53°33' E 005°22'5 9.0
2017-Dec-17 10:00N 53°32' E 005°14'5 9.7
2017-Dec-17 09:31N 53°30' E 005°07'611.1
2017-Dec-17 09:00N 53°28' E 004°58'611.4
2017-Dec-17 08:30N 53°25' E 004°50'711.0
2017-Dec-17 07:55N 53°22' E 004°41'3411.4
2017-Dec-17 04:58N 52°52' E 004°15'811.5
2017-Dec-17 04:16N 52°45' E 004°08'311.7
2017-Dec-17 03:59N 52°43' E 004°04'6210.2
2017-Dec-16 21:53N 51°51' E 003°08'4 9.3
2017-Dec-16 21:29N 51°48' E 003°12'4 9.3
2017-Dec-16 21:00N 51°44' E 003°17'4 8.6
2017-Dec-16 20:29N 51°40' E 003°19'5 9.5
2017-Dec-16 19:59N 51°36' E 003°23'5 9.3
2017-Dec-16 19:30N 51°32' E 003°26'5 9.1
2017-Dec-16 19:00N 51°29' E 003°31'510.1
2017-Dec-16 18:30N 51°25' E 003°37'612.0
2017-Dec-16 18:00N 51°22' E 003°45'612.2
2017-Dec-16 17:30N 51°22' E 003°55'611.2
2017-Dec-16 17:00N 51°26' E 004°01'611.1
2017-Dec-16 16:30N 51°23' E 004°09'5 9.1
2017-Dec-16 16:00N 51°21' E 004°16'510.2
2017-Dec-16 15:31N 51°17' E 004°20'0 0.0
2017-Dec-16 15:00N 51°17' E 004°20'0 0.8
2017-Dec-16 14:31N 51°16' E 004°20'2 3.1
2017-Dec-16 14:01N 51°16' E 004°22'0 0.0
2017-Dec-16 13:28N 51°16' E 004°22'0 0.0
2017-Dec-16 12:58N 51°16' E 004°22'0 0.0
2017-Dec-16 12:28N 51°16' E 004°22'0 0.0
2017-Dec-16 11:58N 51°16' E 004°22'0 0.0
2017-Dec-16 11:28N 51°16' E 004°22'0 0.0
2017-Dec-16 10:58N 51°16' E 004°22'0 0.0
2017-Dec-16 10:28N 51°16' E 004°22'0 0.0
2017-Dec-16 09:58N 51°16' E 004°22'0 0.0
2017-Dec-16 09:28N 51°16' E 004°22'0 0.0
2017-Dec-16 08:58N 51°16' E 004°22'0 0.0
2017-Dec-16 08:28N 51°16' E 004°22'0 0.0
2017-Dec-16 07:58N 51°16' E 004°22'0 0.0
2017-Dec-16 07:28N 51°16' E 004°22'0 0.0
2017-Dec-16 06:58N 51°16' E 004°22'0 0.0
2017-Dec-16 06:28N 51°16' E 004°22'0 0.0
2017-Dec-16 05:58N 51°16' E 004°22'0 0.0
2017-Dec-16 05:28N 51°16' E 004°22'0 0.0
2017-Dec-16 04:58N 51°16' E 004°22'0 0.0
2017-Dec-16 04:28N 51°16' E 004°22'0 0.0
2017-Dec-16 03:58N 51°16' E 004°22'0 0.0
2017-Dec-16 03:28N 51°16' E 004°22'0 0.0
2017-Dec-16 02:58N 51°16' E 004°22'0 0.0
2017-Dec-16 02:28N 51°16' E 004°22'0 0.0
2017-Dec-16 01:58N 51°16' E 004°22'0 0.0
2017-Dec-16 01:28N 51°16' E 004°22'0 0.0
2017-Dec-16 00:58N 51°16' E 004°22'0 0.0
2017-Dec-16 00:28N 51°16' E 004°22'0 0.0
2017-Dec-15 23:58N 51°16' E 004°22'0 0.0
2017-Dec-15 23:28N 51°16' E 004°22'0 0.0
2017-Dec-15 22:58N 51°16' E 004°22'0 0.0
2017-Dec-15 22:28N 51°16' E 004°22'0 0.0
2017-Dec-15 21:58N 51°16' E 004°22'0 0.0
2017-Dec-15 21:28N 51°16' E 004°22'0 0.0
2017-Dec-15 20:58N 51°16' E 004°22'0 0.0
2017-Dec-15 20:28N 51°16' E 004°22'0 0.0
2017-Dec-15 19:58N 51°16' E 004°22'0 0.0
2017-Dec-15 19:28N 51°16' E 004°22'0 0.0
2017-Dec-15 18:58N 51°16' E 004°22'0 0.0
2017-Dec-15 18:28N 51°16' E 004°22'0 0.0
2017-Dec-15 17:58N 51°16' E 004°22'0 0.0
2017-Dec-15 17:28N 51°16' E 004°22'0 0.0
2017-Dec-15 16:58N 51°16' E 004°22'0 0.0
2017-Dec-15 16:28N 51°16' E 004°22'0 0.0
2017-Dec-15 15:58N 51°16' E 004°22'0 0.0
2017-Dec-15 15:28N 51°16' E 004°22'0 0.0
2017-Dec-15 14:58N 51°16' E 004°22'0 0.0
2017-Dec-15 14:28N 51°16' E 004°22'0 0.0
2017-Dec-15 13:58N 51°16' E 004°22'0 0.0
2017-Dec-15 13:28N 51°16' E 004°22'0 0.0
2017-Dec-15 12:58N 51°16' E 004°22'0 0.0
2017-Dec-15 12:28N 51°16' E 004°22'0 0.0
2017-Dec-15 11:58N 51°16' E 004°22'0 0.0
2017-Dec-15 11:31N 51°16' E 004°22'0 0.0
2017-Dec-15 11:00N 51°16' E 004°22'0 0.0
2017-Dec-15 10:30N 51°16' E 004°22'0 0.0
2017-Dec-15 10:00N 51°16' E 004°22'0 0.0
2017-Dec-15 09:30N 51°16' E 004°22'0 0.0
2017-Dec-15 09:00N 51°16' E 004°22'0 0.0
2017-Dec-15 08:30N 51°16' E 004°22'0 0.0
2017-Dec-15 08:00N 51°16' E 004°22'0 0.0
2017-Dec-15 07:30N 51°16' E 004°22'0 0.0
2017-Dec-15 07:00N 51°16' E 004°22'0 0.0
2017-Dec-15 06:30N 51°16' E 004°22'0 0.0
2017-Dec-15 06:00N 51°16' E 004°22'0 0.0
2017-Dec-15 05:30N 51°16' E 004°22'0 0.0
2017-Dec-15 05:00N 51°16' E 004°22'0 0.0
2017-Dec-15 04:30N 51°16' E 004°22'0 0.0
2017-Dec-15 03:57N 51°16' E 004°22'0 0.0
2017-Dec-15 02:30N 51°16' E 004°22'0 0.0
2017-Dec-15 01:00N 51°16' E 004°22'0 0.0
2017-Dec-15 00:30N 51°16' E 004°22'25 4.2
2017-Dec-14 18:30N 51°22' E 003°44'5 9.5
2017-Dec-14 18:00N 51°26' E 003°40'4 8.3
2017-Dec-14 17:28N 51°25' E 003°33'4 9.1
2017-Dec-14 17:00N 51°25' E 003°26'4 8.6
2017-Dec-14 16:30N 51°24' E 003°19'4 7.8
2017-Dec-14 16:00N 51°24' E 003°13'9 8.7
2017-Dec-14 15:00N 51°23' E 002°59'5 9.8
2017-Dec-14 14:30N 51°22' E 002°51'6 9.1
2017-Dec-14 13:50N 51°22' E 002°42'3 8.4
2017-Dec-14 13:30N 51°22' E 002°38'3 6.6
2017-Dec-14 13:00N 51°22' E 002°32'3 5.0
2017-Dec-14 12:28N 51°22' E 002°28'3 5.8
2017-Dec-14 11:59N 51°21' E 002°24'4 9.4
2017-Dec-14 11:30N 51°20' E 002°17'2 3.0
2017-Dec-14 11:01N 51°20' E 002°15'1 1.9
2017-Dec-14 10:29N 51°20' E 002°16'1 1.6
2017-Dec-14 10:00N 51°20' E 002°17'1 1.3
2017-Dec-14 09:30N 51°20' E 002°18'1 1.2
2017-Dec-14 09:00N 51°20' E 002°19'1 1.4
2017-Dec-14 08:30N 51°20' E 002°20'1 1.7
2017-Dec-14 08:00N 51°20' E 002°21'2 3.6
2017-Dec-14 07:27N 51°20' E 002°19'2 5.4
2017-Dec-14 07:00N 51°19' E 002°15'2 4.2
2017-Dec-14 06:31N 51°19' E 002°12'1 2.5
2017-Dec-14 06:00N 51°20' E 002°13'2 3.6
2017-Dec-14 05:29N 51°19' E 002°16'2 4.1
2017-Dec-14 05:00N 51°20' E 002°19'2 4.1
2017-Dec-14 04:30N 51°21' E 002°22'2 4.6
2017-Dec-14 04:00N 51°21' E 002°26'4 3.9
2017-Dec-14 03:05N 51°22' E 002°31'0 4.6
2017-Dec-14 02:59N 51°22' E 002°32'0 0.6
2017-Dec-14 02:30N 51°22' E 002°32'4 7.0
2017-Dec-14 02:00N 51°21' E 002°27'4 7.2
2017-Dec-14 01:29N 51°20' E 002°21'3 6.8
2017-Dec-14 01:00N 51°18' E 002°17'3 6.6
2017-Dec-14 00:30N 51°17' E 002°12'3 6.5
2017-Dec-14 00:00N 51°16' E 002°07'4 7.2
2017-Dec-13 23:30N 51°14' E 002°02'4 7.0
2017-Dec-13 23:00N 51°12' E 001°58'4 7.6
2017-Dec-13 22:30N 51°10' E 001°52'4 8.8
2017-Dec-13 22:00N 51°07' E 001°47'5 9.2
2017-Dec-13 21:30N 51°04' E 001°42'4 8.7
2017-Dec-13 21:00N 51°01' E 001°38'4 8.3
2017-Dec-13 20:30N 50°58' E 001°33'510.0
2017-Dec-13 20:00N 50°54' E 001°29'64 9.1
2017-Dec-13 13:00N 50°21' E 000°02'5 9.1
2017-Dec-13 12:30N 50°20' W 000°05'6 8.8
2017-Dec-13 11:48N 50°18' W 000°14'215 9.9
2017-Dec-12 13:59N 48°52' W 005°18'  
2017-Dec-09 01:25N 39°23' W 009°50'4 9.5
2017-Dec-09 01:00N 39°19' W 009°50'5 9.8
2017-Dec-09 00:30N 39°14' W 009°50'5 9.8
2017-Dec-09 00:00N 39°09' W 009°50'5 9.8
2017-Dec-08 23:30N 39°04' W 009°50'5 9.7
2017-Dec-08 23:00N 38°59' W 009°50'5 9.7
2017-Dec-08 22:30N 38°54' W 009°50'5 9.6
2017-Dec-08 22:00N 38°50' W 009°50'5 9.8
2017-Dec-08 21:30N 38°45' W 009°50'510.1
2017-Dec-08 21:00N 38°40' W 009°50'510.3
2017-Dec-08 20:30N 38°35' W 009°48'510.0
2017-Dec-08 20:00N 38°30' W 009°47'  
Track history (hours):
 
Tides and Currents Weather Stations Pressure Air Temp Water Temp Dewpoint Dewpoint Depression Visibility Wind Speed Wind Dir Waves Ship Positions

Immensity

Last reported at 2017-Dec-18 19:47 UTC. Time now 2017-Dec-18 20:40 UTC.
Position N 54°38' E 012°26'.

Length 108 m; draft 4.9 m.

Type: Cargo ship. MMSI: 249935000.

Date/timePositionNaut miles runAvg speedWind from/ knotsBaromVisibWave heightAir tempDewpointWater temp
2017-Dec-18 19:47N 54°38' E 012°26'2 9.0
2017-Dec-18 19:30N 54°36' E 012°22'4 8.8
2017-Dec-18 19:00N 54°33' E 012°18'7 8.9
2017-Dec-18 18:15N 54°27' E 012°13'2 8.9
2017-Dec-18 18:00N 54°25' E 012°11'4 8.4
2017-Dec-18 17:30N 54°24' E 012°03'13 8.4
2017-Dec-18 15:57N 54°26' E 011°41'4 8.5
2017-Dec-18 15:30N 54°28' E 011°35'4 8.5
2017-Dec-18 14:59N 54°30' E 011°29'4 8.1
2017-Dec-18 14:30N 54°32' E 011°23'4 7.9
2017-Dec-18 14:00N 54°33' E 011°16'4 7.7
2017-Dec-18 13:30N 54°35' E 011°10'4 7.6
2017-Dec-18 13:00N 54°35' E 011°04'4 7.9
2017-Dec-18 12:30N 54°35' E 010°57'4 8.6
2017-Dec-18 12:00N 54°34' E 010°50'4 8.8
2017-Dec-18 11:30N 54°34' E 010°42'4 8.9
2017-Dec-18 11:00N 54°33' E 010°35'24 6.7
2017-Dec-18 07:23N 54°21' E 009°59'3 6.9
2017-Dec-18 06:55N 54°21' E 009°54'3 8.1
2017-Dec-18 06:30N 54°22' E 009°48'4 8.2
2017-Dec-18 06:00N 54°19' E 009°43'4 7.2
2017-Dec-18 05:31N 54°17' E 009°38'3 6.6
2017-Dec-18 05:00N 54°14' E 009°36'4 8.0
2017-Dec-18 04:30N 54°11' E 009°31'4 8.4
2017-Dec-18 04:00N 54°10' E 009°24'4 7.4
2017-Dec-18 03:26N 54°06' E 009°20'4 8.3
2017-Dec-18 03:00N 54°03' E 009°18'3 5.4
2017-Dec-18 02:30N 54°00' E 009°18'3 6.4
2017-Dec-18 02:00N 53°57' E 009°15'4 8.0
2017-Dec-18 01:31N 53°54' E 009°10'1 2.4
2017-Dec-18 01:00N 53°54' E 009°09'0 0.7
2017-Dec-18 00:30N 53°53' E 009°08'2 3.3
2017-Dec-18 00:00N 53°53' E 009°05'2 3.5
2017-Dec-17 23:30N 53°52' E 009°03'713.2
2017-Dec-17 23:00N 53°50' E 008°52'612.5
2017-Dec-17 22:31N 53°53' E 008°43'612.8
2017-Dec-17 22:01N 53°58' E 008°35'714.0
2017-Dec-17 21:31N 53°59' E 008°24'713.3
2017-Dec-17 21:00N 53°60' E 008°12'611.2
2017-Dec-17 20:30N 53°59' E 008°03'611.1
2017-Dec-17 20:00N 53°58' E 007°54'88 9.9
2017-Dec-17 11:08N 53°34' E 005°30'2 8.7
2017-Dec-17 10:55N 53°34' E 005°27'4 8.8
2017-Dec-17 10:30N 53°33' E 005°22'5 9.0
2017-Dec-17 10:00N 53°32' E 005°14'5 9.7
2017-Dec-17 09:31N 53°30' E 005°07'611.1
2017-Dec-17 09:00N 53°28' E 004°58'611.4
2017-Dec-17 08:30N 53°25' E 004°50'711.0
2017-Dec-17 07:55N 53°22' E 004°41'3411.4
2017-Dec-17 04:58N 52°52' E 004°15'811.5
2017-Dec-17 04:16N 52°45' E 004°08'311.7
2017-Dec-17 03:59N 52°43' E 004°04'6210.2
2017-Dec-16 21:53N 51°51' E 003°08'4 9.3
2017-Dec-16 21:29N 51°48' E 003°12'4 9.3
2017-Dec-16 21:00N 51°44' E 003°17'4 8.6
2017-Dec-16 20:29N 51°40' E 003°19'5 9.5
2017-Dec-16 19:59N 51°36' E 003°23'5 9.3
2017-Dec-16 19:30N 51°32' E 003°26'5 9.1
2017-Dec-16 19:00N 51°29' E 003°31'510.1
2017-Dec-16 18:30N 51°25' E 003°37'612.0
2017-Dec-16 18:00N 51°22' E 003°45'612.2
2017-Dec-16 17:30N 51°22' E 003°55'611.2
2017-Dec-16 17:00N 51°26' E 004°01'611.1
2017-Dec-16 16:30N 51°23' E 004°09'5 9.1
2017-Dec-16 16:00N 51°21' E 004°16'510.2
2017-Dec-16 15:31N 51°17' E 004°20'0 0.0
2017-Dec-16 15:00N 51°17' E 004°20'0 0.8
2017-Dec-16 14:31N 51°16' E 004°20'2 3.1
2017-Dec-16 14:01N 51°16' E 004°22'0 0.0
2017-Dec-16 13:28N 51°16' E 004°22'0 0.0
2017-Dec-16 12:58N 51°16' E 004°22'0 0.0
2017-Dec-16 12:28N 51°16' E 004°22'0 0.0
2017-Dec-16 11:58N 51°16' E 004°22'0 0.0
2017-Dec-16 11:28N 51°16' E 004°22'0 0.0
2017-Dec-16 10:58N 51°16' E 004°22'0 0.0
2017-Dec-16 10:28N 51°16' E 004°22'0 0.0
2017-Dec-16 09:58N 51°16' E 004°22'0 0.0
2017-Dec-16 09:28N 51°16' E 004°22'0 0.0
2017-Dec-16 08:58N 51°16' E 004°22'0 0.0
2017-Dec-16 08:28N 51°16' E 004°22'0 0.0
2017-Dec-16 07:58N 51°16' E 004°22'0 0.0
2017-Dec-16 07:28N 51°16' E 004°22'0 0.0
2017-Dec-16 06:58N 51°16' E 004°22'0 0.0
2017-Dec-16 06:28N 51°16' E 004°22'0 0.0
2017-Dec-16 05:58N 51°16' E 004°22'0 0.0
2017-Dec-16 05:28N 51°16' E 004°22'0 0.0
2017-Dec-16 04:58N 51°16' E 004°22'0 0.0
2017-Dec-16 04:28N 51°16' E 004°22'0 0.0
2017-Dec-16 03:58N 51°16' E 004°22'0 0.0
2017-Dec-16 03:28N 51°16' E 004°22'0 0.0
2017-Dec-16 02:58N 51°16' E 004°22'0 0.0
2017-Dec-16 02:28N 51°16' E 004°22'0 0.0
2017-Dec-16 01:58N 51°16' E 004°22'0 0.0
2017-Dec-16 01:28N 51°16' E 004°22'0 0.0
2017-Dec-16 00:58N 51°16' E 004°22'0 0.0
2017-Dec-16 00:28N 51°16' E 004°22'0 0.0
2017-Dec-15 23:58N 51°16' E 004°22'0 0.0
2017-Dec-15 23:28N 51°16' E 004°22'0 0.0
2017-Dec-15 22:58N 51°16' E 004°22'0 0.0
2017-Dec-15 22:28N 51°16' E 004°22'0 0.0
2017-Dec-15 21:58N 51°16' E 004°22'0 0.0
2017-Dec-15 21:28N 51°16' E 004°22'0 0.0
2017-Dec-15 20:58N 51°16' E 004°22'0 0.0
2017-Dec-15 20:28N 51°16' E 004°22'0 0.0
2017-Dec-15 19:58N 51°16' E 004°22'0 0.0
2017-Dec-15 19:28N 51°16' E 004°22'0 0.0
2017-Dec-15 18:58N 51°16' E 004°22'0 0.0
2017-Dec-15 18:28N 51°16' E 004°22'0 0.0
2017-Dec-15 17:58N 51°16' E 004°22'0 0.0
2017-Dec-15 17:28N 51°16' E 004°22'0 0.0
2017-Dec-15 16:58N 51°16' E 004°22'0 0.0
2017-Dec-15 16:28N 51°16' E 004°22'0 0.0
2017-Dec-15 15:58N 51°16' E 004°22'0 0.0
2017-Dec-15 15:28N 51°16' E 004°22'0 0.0
2017-Dec-15 14:58N 51°16' E 004°22'0 0.0
2017-Dec-15 14:28N 51°16' E 004°22'0 0.0
2017-Dec-15 13:58N 51°16' E 004°22'0 0.0
2017-Dec-15 13:28N 51°16' E 004°22'0 0.0
2017-Dec-15 12:58N 51°16' E 004°22'0 0.0
2017-Dec-15 12:28N 51°16' E 004°22'0 0.0
2017-Dec-15 11:58N 51°16' E 004°22'0 0.0
2017-Dec-15 11:31N 51°16' E 004°22'0 0.0
2017-Dec-15 11:00N 51°16' E 004°22'0 0.0
2017-Dec-15 10:30N 51°16' E 004°22'0 0.0
2017-Dec-15 10:00N 51°16' E 004°22'0 0.0
2017-Dec-15 09:30N 51°16' E 004°22'0 0.0
2017-Dec-15 09:00N 51°16' E 004°22'0 0.0
2017-Dec-15 08:30N 51°16' E 004°22'0 0.0
2017-Dec-15 08:00N 51°16' E 004°22'0 0.0
2017-Dec-15 07:30N 51°16' E 004°22'0 0.0
2017-Dec-15 07:00N 51°16' E 004°22'0 0.0
2017-Dec-15 06:30N 51°16' E 004°22'0 0.0
2017-Dec-15 06:00N 51°16' E 004°22'0 0.0
2017-Dec-15 05:30N 51°16' E 004°22'0 0.0
2017-Dec-15 05:00N 51°16' E 004°22'0 0.0
2017-Dec-15 04:30N 51°16' E 004°22'0 0.0
2017-Dec-15 03:57N 51°16' E 004°22'0 0.0
2017-Dec-15 02:30N 51°16' E 004°22'0 0.0
2017-Dec-15 01:00N 51°16' E 004°22'0 0.0
2017-Dec-15 00:30N 51°16' E 004°22'25 4.2
2017-Dec-14 18:30N 51°22' E 003°44'5 9.5
2017-Dec-14 18:00N 51°26' E 003°40'4 8.3
2017-Dec-14 17:28N 51°25' E 003°33'4 9.1
2017-Dec-14 17:00N 51°25' E 003°26'4 8.6
2017-Dec-14 16:30N 51°24' E 003°19'4 7.8
2017-Dec-14 16:00N 51°24' E 003°13'9 8.7
2017-Dec-14 15:00N 51°23' E 002°59'5 9.8
2017-Dec-14 14:30N 51°22' E 002°51'6 9.1
2017-Dec-14 13:50N 51°22' E 002°42'3 8.4
2017-Dec-14 13:30N 51°22' E 002°38'3 6.6
2017-Dec-14 13:00N 51°22' E 002°32'3 5.0
2017-Dec-14 12:28N 51°22' E 002°28'3 5.8
2017-Dec-14 11:59N 51°21' E 002°24'4 9.4
2017-Dec-14 11:30N 51°20' E 002°17'2 3.0
2017-Dec-14 11:01N 51°20' E 002°15'1 1.9
2017-Dec-14 10:29N 51°20' E 002°16'1 1.6
2017-Dec-14 10:00N 51°20' E 002°17'1 1.3
2017-Dec-14 09:30N 51°20' E 002°18'1 1.2
2017-Dec-14 09:00N 51°20' E 002°19'1 1.4
2017-Dec-14 08:30N 51°20' E 002°20'1 1.7
2017-Dec-14 08:00N 51°20' E 002°21'2 3.6
2017-Dec-14 07:27N 51°20' E 002°19'2 5.4
2017-Dec-14 07:00N 51°19' E 002°15'2 4.2
2017-Dec-14 06:31N 51°19' E 002°12'1 2.5
2017-Dec-14 06:00N 51°20' E 002°13'2 3.6
2017-Dec-14 05:29N 51°19' E 002°16'2 4.1
2017-Dec-14 05:00N 51°20' E 002°19'2 4.1
2017-Dec-14 04:30N 51°21' E 002°22'2 4.6
2017-Dec-14 04:00N 51°21' E 002°26'4 3.9
2017-Dec-14 03:05N 51°22' E 002°31'0 4.6
2017-Dec-14 02:59N 51°22' E 002°32'0 0.6
2017-Dec-14 02:30N 51°22' E 002°32'4 7.0
2017-Dec-14 02:00N 51°21' E 002°27'4 7.2
2017-Dec-14 01:29N 51°20' E 002°21'3 6.8
2017-Dec-14 01:00N 51°18' E 002°17'3 6.6
2017-Dec-14 00:30N 51°17' E 002°12'3 6.5
2017-Dec-14 00:00N 51°16' E 002°07'4 7.2
2017-Dec-13 23:30N 51°14' E 002°02'4 7.0
2017-Dec-13 23:00N 51°12' E 001°58'4 7.6
2017-Dec-13 22:30N 51°10' E 001°52'4 8.8
2017-Dec-13 22:00N 51°07' E 001°47'5 9.2
2017-Dec-13 21:30N 51°04' E 001°42'4 8.7
2017-Dec-13 21:00N 51°01' E 001°38'4 8.3
2017-Dec-13 20:30N 50°58' E 001°33'510.0
2017-Dec-13 20:00N 50°54' E 001°29'64 9.1
2017-Dec-13 13:00N 50°21' E 000°02'5 9.1
2017-Dec-13 12:30N 50°20' W 000°05'6 8.8
2017-Dec-13 11:48N 50°18' W 000°14'215 9.9
2017-Dec-12 13:59N 48°52' W 005°18'  
2017-Dec-09 01:25N 39°23' W 009°50'4 9.5
2017-Dec-09 01:00N 39°19' W 009°50'5 9.8
2017-Dec-09 00:30N 39°14' W 009°50'5 9.8
2017-Dec-09 00:00N 39°09' W 009°50'5 9.8
2017-Dec-08 23:30N 39°04' W 009°50'5 9.7
2017-Dec-08 23:00N 38°59' W 009°50'5 9.7
2017-Dec-08 22:30N 38°54' W 009°50'5 9.6
2017-Dec-08 22:00N 38°50' W 009°50'5 9.8
2017-Dec-08 21:30N 38°45' W 009°50'510.1
2017-Dec-08 21:00N 38°40' W 009°50'510.3
2017-Dec-08 20:30N 38°35' W 009°48'510.0
2017-Dec-08 20:00N 38°30' W 009°47'  

Dump ship's entire track history